createdAt,value
2019-02-10T00:00:56.360Z,87.70
2019-02-10T00:03:31.744Z,87.80
2019-02-10T00:06:06.572Z,87.80
2019-02-10T00:08:40.581Z,87.60
2019-02-10T00:11:14.590Z,87.30
2019-02-10T00:13:50.647Z,87.00
2019-02-10T00:16:26.369Z,86.70
2019-02-10T00:19:00.367Z,86.20
2019-02-10T00:21:34.397Z,86.30
2019-02-10T00:24:08.396Z,86.30
2019-02-10T00:26:43.769Z,86.30
2019-02-10T00:29:25.419Z,86.30
2019-02-10T00:31:59.978Z,86.30
2019-02-10T00:34:35.631Z,86.10
2019-02-10T00:37:11.691Z,85.90
2019-02-10T00:39:46.424Z,86.00
2019-02-10T00:42:20.931Z,85.90
2019-02-10T00:44:55.762Z,86.00
2019-02-10T00:50:59.896Z,86.20
2019-02-10T00:53:34.723Z,86.30
2019-02-10T00:56:08.938Z,86.30
2019-02-10T00:58:43.767Z,86.30
2019-02-10T01:04:36.022Z,86.40
2019-02-10T01:07:12.700Z,86.40
2019-02-10T01:09:49.423Z,86.30
2019-02-10T01:12:24.427Z,86.40
2019-02-10T01:14:58.437Z,86.40
2019-02-10T01:21:14.451Z,86.20
2019-02-10T01:27:29.437Z,86.30
2019-02-10T01:30:03.445Z,86.10
2019-02-10T01:32:39.887Z,86.20
2019-02-10T01:35:14.426Z,86.30
2019-02-10T01:37:47.701Z,86.40
2019-02-10T01:40:23.351Z,86.40
2019-02-10T01:43:01.412Z,86.50
2019-02-10T01:45:34.644Z,86.70
2019-02-10T01:48:10.427Z,86.70
2019-02-10T01:50:44.475Z,86.90
2019-02-10T01:53:18.927Z,86.90
2019-02-10T01:55:53.424Z,86.80
2019-02-10T01:58:27.766Z,86.80
2019-02-10T02:01:02.428Z,86.60
2019-02-10T02:03:37.010Z,86.70
2019-02-10T02:06:11.635Z,86.80
2019-02-10T02:08:45.645Z,86.90
2019-02-10T02:11:19.656Z,87.10
2019-02-10T02:14:03.700Z,87.40
2019-02-10T02:16:38.733Z,87.60
2019-02-10T02:19:14.438Z,87.60
2019-02-10T02:21:48.436Z,87.70
2019-02-10T02:24:22.430Z,87.60
2019-02-10T02:26:56.438Z,87.40
2019-02-10T02:29:30.009Z,87.10
2019-02-10T02:32:04.687Z,87.00
2019-02-10T02:34:38.642Z,87.10
2019-02-10T02:37:13.270Z,87.30
2019-02-10T02:39:48.914Z,87.30
2019-02-10T02:42:23.431Z,87.30
2019-02-10T02:44:58.985Z,87.30
2019-02-10T02:47:33.810Z,87.10
2019-02-10T02:50:08.639Z,86.90
2019-02-10T02:52:44.904Z,87.00
2019-02-10T02:55:19.433Z,86.80
2019-02-10T03:00:57.648Z,86.60
2019-02-10T03:07:18.121Z,86.70
2019-02-10T03:09:49.434Z,86.80
2019-02-10T03:12:23.934Z,86.50
2019-02-10T03:14:58.443Z,86.50
2019-02-10T03:17:32.977Z,86.30
2019-02-10T03:23:47.438Z,85.90
2019-02-10T03:30:03.446Z,85.40
2019-02-10T03:32:37.453Z,85.50
2019-02-10T03:35:13.430Z,85.50
2019-02-10T03:41:28.450Z,85.50
2019-02-10T03:47:44.021Z,85.80
2019-02-10T03:50:19.670Z,86.00
2019-02-10T03:52:55.446Z,86.30
2019-02-10T03:55:29.942Z,86.60
2019-02-10T03:58:04.770Z,86.70
2019-02-10T04:00:39.454Z,86.60
2019-02-10T04:03:15.657Z,86.60
2019-02-10T04:05:51.719Z,86.10
2019-02-10T04:08:26.953Z,85.80
2019-02-10T04:11:02.463Z,85.60
2019-02-10T04:13:38.658Z,85.40
2019-02-10T04:16:14.920Z,85.30
2019-02-10T04:18:49.451Z,85.30
2019-02-10T04:21:23.964Z,86.20
2019-02-10T04:23:58.455Z,86.00
2019-02-10T04:26:33.455Z,85.90
2019-02-10T04:29:09.063Z,85.50
2019-02-10T04:31:43.687Z,85.80
2019-02-10T04:34:18.721Z,86.00
2019-02-10T04:36:54.989Z,85.50
2019-02-10T04:39:30.461Z,86.10
2019-02-10T04:42:04.462Z,86.30
2019-02-10T04:44:38.473Z,85.40
2019-02-10T04:47:13.887Z,85.50
2019-02-10T04:49:52.472Z,85.70
2019-02-10T04:52:27.027Z,85.90
2019-02-10T04:55:01.479Z,85.70
2019-02-10T04:57:36.686Z,85.40
2019-02-10T05:00:12.947Z,84.90
2019-02-10T05:02:48.463Z,84.60
2019-02-10T05:05:22.467Z,84.50
2019-02-10T05:07:56.826Z,83.60
2019-02-10T05:10:32.466Z,83.50
2019-02-10T05:13:08.729Z,83.40
2019-02-10T05:15:45.810Z,83.10
2019-02-10T05:22:01.422Z,82.90
2019-02-10T05:28:17.846Z,87.30
2019-02-10T05:30:55.743Z,87.00
2019-02-10T05:33:32.007Z,86.80
2019-02-10T05:39:35.932Z,86.90
2019-02-10T05:42:10.768Z,87.40
2019-02-10T05:44:45.805Z,87.40
2019-02-10T05:47:24.871Z,87.60
2019-02-10T05:50:04.880Z,88.00
2019-02-10T05:56:20.881Z,88.50
2019-02-10T05:58:56.958Z,88.50
2019-02-10T06:05:26.498Z,88.10
2019-02-10T06:08:02.938Z,87.70
2019-02-10T06:10:37.969Z,87.50
2019-02-10T06:13:13.618Z,87.30
2019-02-10T06:15:54.509Z,87.10
2019-02-10T06:18:31.262Z,86.70
2019-02-10T06:21:06.764Z,86.70
2019-02-10T06:23:48.504Z,86.80
2019-02-10T06:29:51.230Z,86.60
2019-02-10T06:32:26.127Z,85.40
2019-02-10T06:35:01.164Z,85.10
2019-02-10T06:37:36.809Z,85.10
2019-02-10T06:40:13.481Z,84.70
2019-02-10T06:42:49.038Z,84.90
2019-02-10T06:45:23.342Z,84.60
2019-02-10T06:48:00.219Z,84.50
2019-02-10T06:50:34.230Z,84.30
2019-02-10T06:53:08.239Z,84.60
2019-02-10T06:55:43.014Z,84.80
2019-02-10T06:58:18.339Z,84.80
2019-02-10T07:01:13.045Z,84.90
2019-02-10T07:03:53.030Z,84.70
2019-02-10T07:06:28.596Z,84.10
2019-02-10T07:09:03.426Z,83.70
2019-02-10T07:11:41.043Z,84.10
2019-02-10T07:14:39.502Z,84.60
2019-02-10T07:17:54.472Z,84.60
2019-02-10T07:20:59.613Z,84.10
2019-02-10T07:27:06.613Z,83.20
2019-02-10T07:30:11.749Z,83.20
2019-02-10T07:32:50.267Z,82.90
2019-02-10T07:36:02.896Z,82.90
2019-02-10T07:42:37.435Z,83.50
2019-02-10T07:45:44.207Z,84.10
2019-02-10T07:48:45.453Z,84.20
2019-02-10T07:52:04.804Z,83.80
2019-02-10T07:55:12.803Z,84.30
2019-02-10T07:58:24.012Z,84.20
2019-02-10T08:01:28.800Z,84.60
2019-02-10T08:04:36.802Z,84.60
2019-02-10T08:07:39.019Z,84.90
2019-02-10T08:14:19.405Z,84.80
2019-02-10T08:20:46.273Z,84.20
2019-02-10T08:27:05.804Z,83.60
2019-02-10T08:33:49.016Z,83.00
2019-02-10T08:36:39.410Z,82.20
2019-02-10T08:39:37.818Z,82.40
2019-02-10T08:42:50.711Z,82.30
2019-02-10T08:46:00.833Z,81.40
2019-02-10T08:49:10.131Z,81.60
2019-02-10T08:52:23.334Z,81.80
2019-02-10T08:55:09.220Z,81.90
2019-02-10T08:57:50.731Z,81.90
2019-02-10T09:00:25.021Z,81.70
2019-02-10T09:02:59.031Z,83.10
2019-02-10T09:05:35.810Z,84.60
2019-02-10T09:11:03.830Z,86.90
2019-02-10T09:13:41.284Z,86.40
2019-02-10T09:16:17.348Z,85.60
2019-02-10T09:18:54.012Z,85.60
2019-02-10T09:21:28.910Z,85.00
2019-02-10T09:24:04.082Z,83.80
2019-02-10T09:30:06.821Z,82.50
2019-02-10T09:32:41.414Z,82.20
2019-02-10T09:35:19.101Z,81.90
2019-02-10T09:37:54.825Z,81.90
2019-02-10T09:50:51.831Z,83.70
2019-02-10T09:53:27.203Z,83.80
2019-02-10T09:59:30.315Z,83.10
2019-02-10T10:05:37.111Z,81.00
2019-02-10T10:11:39.838Z,78.90
2019-02-10T10:14:17.713Z,78.70
2019-02-10T10:16:53.158Z,78.40
2019-02-10T10:19:29.852Z,78.00
2019-02-10T10:22:05.065Z,78.20
2019-02-10T10:24:40.303Z,78.10
2019-02-10T10:27:14.848Z,77.50
2019-02-10T10:33:31.948Z,76.00
2019-02-10T10:36:08.440Z,76.70
2019-02-10T10:38:46.330Z,76.70
2019-02-10T10:41:22.184Z,77.00
2019-02-10T10:43:59.063Z,77.20
2019-02-10T10:46:35.118Z,78.00
2019-02-10T10:49:10.766Z,79.00
2019-02-10T10:51:45.277Z,78.50
2019-02-10T10:54:19.604Z,77.90
2019-02-10T10:56:54.023Z,77.90
2019-02-10T10:59:29.672Z,77.60
2019-02-10T11:02:04.531Z,77.60
2019-02-10T11:04:39.128Z,77.00
2019-02-10T11:07:15.798Z,76.10
2019-02-10T11:09:50.829Z,74.00
2019-02-10T11:12:27.308Z,73.60
2019-02-10T11:15:05.802Z,71.10
2019-02-10T11:17:42.283Z,71.50
2019-02-10T11:23:20.640Z,72.00
2019-02-10T11:25:56.367Z,72.00
2019-02-10T11:28:29.856Z,72.30
2019-02-10T11:31:06.118Z,73.60
2019-02-10T11:33:43.200Z,73.80
2019-02-10T11:39:34.022Z,73.30
2019-02-10T11:45:49.012Z,72.90
2019-02-10T11:48:27.115Z,71.70
2019-02-10T11:54:13.843Z,71.80
2019-02-10T12:00:17.639Z,72.00
2019-02-10T12:06:19.858Z,68.50
2019-02-10T12:08:53.869Z,68.30
2019-02-10T12:11:29.517Z,68.40
2019-02-10T12:17:10.921Z,68.00
2019-02-10T12:23:27.961Z,68.60
2019-02-10T12:26:04.020Z,71.90
2019-02-10T12:28:45.196Z,71.00
2019-02-10T12:31:23.303Z,70.40
2019-02-10T12:33:58.138Z,70.10
2019-02-10T12:36:35.225Z,69.90
2019-02-10T12:42:39.659Z,69.90
2019-02-10T12:45:14.986Z,68.30
2019-02-10T12:47:50.661Z,67.60
2019-02-10T12:50:33.864Z,65.70
2019-02-10T12:56:48.849Z,64.20
2019-02-10T13:02:51.664Z,63.60
2019-02-10T13:08:42.700Z,64.60
2019-02-10T13:14:44.868Z,65.40
2019-02-10T13:20:49.206Z,66.20
2019-02-10T13:23:24.240Z,66.80
2019-02-10T13:29:04.655Z,67.10
2019-02-10T13:35:12.668Z,67.30
2019-02-10T13:37:49.667Z,67.50
2019-02-10T13:44:20.277Z,68.30
2019-02-10T13:50:23.672Z,69.00
2019-02-10T13:56:28.671Z,69.30
2019-02-10T14:02:32.065Z,69.60
2019-02-10T14:08:25.144Z,69.40
2019-02-10T14:14:37.597Z,69.90
2019-02-10T14:20:53.070Z,70.70
2019-02-10T14:26:45.121Z,69.30
2019-02-10T14:29:20.975Z,69.40
2019-02-10T14:31:57.031Z,69.80
2019-02-10T14:34:34.317Z,69.90
2019-02-10T14:37:09.147Z,69.60
2019-02-10T14:39:44.180Z,69.40
2019-02-10T14:42:18.649Z,69.50
2019-02-10T14:44:53.019Z,69.60
2019-02-10T14:47:27.681Z,69.40
2019-02-10T14:50:01.860Z,69.30
2019-02-10T14:52:35.867Z,69.80
2019-02-10T14:55:11.310Z,69.40
2019-02-10T14:57:47.162Z,69.20
2019-02-10T15:00:22.195Z,70.10
2019-02-10T15:02:57.685Z,69.80
2019-02-10T15:05:31.673Z,70.00
2019-02-10T15:11:11.205Z,69.70
2019-02-10T15:13:45.012Z,70.40
2019-02-10T15:16:19.669Z,70.60
2019-02-10T15:22:22.667Z,71.60
2019-02-10T15:28:06.196Z,72.10
2019-02-10T15:34:08.895Z,73.10
2019-02-10T15:36:44.953Z,74.10
2019-02-10T15:39:19.675Z,72.40
2019-02-10T15:41:55.225Z,73.50
2019-02-10T15:44:32.305Z,73.00
2019-02-10T15:50:10.669Z,73.20
2019-02-10T15:52:45.266Z,73.80
2019-02-10T15:55:21.931Z,74.90
2019-02-10T15:57:59.668Z,76.40
2019-02-10T16:00:35.275Z,77.30
2019-02-10T16:03:10.922Z,78.30
2019-02-10T16:05:48.682Z,79.50
2019-02-10T16:08:28.161Z,80.20
2019-02-10T16:11:03.674Z,81.50
2019-02-10T16:13:38.671Z,82.50
2019-02-10T16:16:13.054Z,83.50
2019-02-10T16:18:48.089Z,85.50
2019-02-10T16:21:23.673Z,87.00
2019-02-10T16:23:59.999Z,88.90
2019-02-10T16:26:35.674Z,89.20
2019-02-10T16:29:10.886Z,89.90
2019-02-10T16:31:47.350Z,90.70
2019-02-10T16:34:24.030Z,91.50
2019-02-10T16:37:00.080Z,92.50
2019-02-10T16:39:36.139Z,92.40
2019-02-10T16:42:11.172Z,92.10
2019-02-10T16:44:46.674Z,92.50
2019-02-10T16:47:22.616Z,92.70
2019-02-10T16:49:56.888Z,92.20
2019-02-10T16:52:34.176Z,92.10
2019-02-10T16:55:11.052Z,92.30
2019-02-10T16:57:49.676Z,92.20
2019-02-10T17:00:25.675Z,92.10
2019-02-10T17:03:01.065Z,90.90
2019-02-10T17:05:43.883Z,89.90
2019-02-10T17:08:19.681Z,89.90
2019-02-10T17:10:54.682Z,89.50
2019-02-10T17:13:30.676Z,89.00
2019-02-10T17:16:05.495Z,88.40
2019-02-10T17:18:39.707Z,88.30
2019-02-10T17:21:16.130Z,88.10
2019-02-10T17:23:50.679Z,87.80
2019-02-10T17:26:24.968Z,87.90
2019-02-10T17:29:00.682Z,87.60
2019-02-10T17:34:53.077Z,86.50
2019-02-10T17:37:26.709Z,86.50
2019-02-10T17:40:02.327Z,86.90
2019-02-10T17:42:36.686Z,87.60
2019-02-10T17:45:12.196Z,87.50
2019-02-10T17:47:46.683Z,87.40
2019-02-10T17:50:21.230Z,87.10
2019-02-10T17:52:56.701Z,86.40
2019-02-10T17:55:30.888Z,86.20
2019-02-10T17:58:07.151Z,86.60
2019-02-10T18:00:45.695Z,87.40
2019-02-10T18:03:20.907Z,88.10
2019-02-10T18:05:57.719Z,86.60
2019-02-10T18:08:32.688Z,86.70
2019-02-10T18:11:06.686Z,86.70
2019-02-10T18:13:41.243Z,86.00
2019-02-10T18:16:43.310Z,85.10
2019-02-10T18:23:14.709Z,86.60
2019-02-10T18:26:07.535Z,86.50
2019-02-10T18:35:53.698Z,85.30
2019-02-10T18:38:54.918Z,85.50
2019-02-10T18:45:15.697Z,83.50
2019-02-10T18:48:11.697Z,84.40
2019-02-10T18:50:53.970Z,84.30
2019-02-10T18:53:46.208Z,82.70
2019-02-10T18:56:44.699Z,80.10
2019-02-10T18:59:38.699Z,79.30
2019-02-10T19:05:46.900Z,78.50
2019-02-10T19:08:32.175Z,78.40
2019-02-10T19:11:20.009Z,77.10
2019-02-10T19:14:06.927Z,77.90
2019-02-10T19:17:16.674Z,77.90
2019-02-10T19:20:18.716Z,77.50
2019-02-10T19:23:09.130Z,77.30
2019-02-10T19:25:55.424Z,77.80
2019-02-10T19:28:51.361Z,78.80
2019-02-10T19:31:45.040Z,78.80
2019-02-10T19:34:40.954Z,78.60
2019-02-10T19:37:34.831Z,77.20
2019-02-10T19:40:33.197Z,78.00
2019-02-10T19:43:26.764Z,77.90
2019-02-10T19:46:19.311Z,77.30
2019-02-10T19:49:28.851Z,78.10
2019-02-10T19:52:31.575Z,77.90
2019-02-10T19:55:18.547Z,78.60
2019-02-10T19:58:27.903Z,77.80
2019-02-10T20:01:26.890Z,78.10
2019-02-10T20:04:39.600Z,78.30
2019-02-10T20:07:38.476Z,78.90
2019-02-10T20:10:32.567Z,78.40
2019-02-10T20:13:25.744Z,78.50
2019-02-10T20:16:27.282Z,78.90
2019-02-10T20:19:30.988Z,79.00
2019-02-10T20:22:24.318Z,78.50
2019-02-10T20:25:19.145Z,77.80
2019-02-10T20:28:10.973Z,77.40
2019-02-10T20:34:07.772Z,78.60
2019-02-10T20:37:07.780Z,79.70
2019-02-10T20:39:57.123Z,81.20
2019-02-10T20:42:42.194Z,82.80
2019-02-10T20:45:36.272Z,84.50
2019-02-10T20:48:28.510Z,85.50
2019-02-10T20:51:20.783Z,86.30
2019-02-10T20:54:08.280Z,86.50
2019-02-10T20:56:49.776Z,87.40
2019-02-10T20:59:36.807Z,87.10
2019-02-10T21:02:35.153Z,87.50
2019-02-10T21:05:45.003Z,88.90
2019-02-10T21:08:38.056Z,88.20
2019-02-10T21:11:30.296Z,87.50
2019-02-10T21:14:30.783Z,87.60
2019-02-10T21:17:27.463Z,88.00
2019-02-10T21:20:10.782Z,88.00
2019-02-10T21:22:54.325Z,88.00
2019-02-10T21:25:38.165Z,88.40
2019-02-10T21:28:22.004Z,88.20
2019-02-10T21:31:33.288Z,87.30
2019-02-10T21:34:18.807Z,86.70
2019-02-10T21:37:17.789Z,87.00
2019-02-10T21:40:22.785Z,86.90
2019-02-10T21:43:32.346Z,86.50
2019-02-10T21:46:36.252Z,86.20
2019-02-10T21:49:13.787Z,86.50
2019-02-10T21:51:48.805Z,85.40
2019-02-10T21:54:24.014Z,85.10
2019-02-10T21:56:59.049Z,85.70
2019-02-10T21:59:33.469Z,85.30
2019-02-10T22:02:08.795Z,85.60
2019-02-10T22:04:42.790Z,85.30
2019-02-10T22:07:16.788Z,85.70
2019-02-10T22:09:52.814Z,85.40
2019-02-10T22:12:26.996Z,85.30
2019-02-10T22:15:02.794Z,85.40
2019-02-10T22:17:36.789Z,85.20
2019-02-10T22:20:13.790Z,85.10
2019-02-10T22:22:48.798Z,85.00
2019-02-10T22:25:27.285Z,85.10
2019-02-10T22:28:02.790Z,85.30
2019-02-10T22:30:37.788Z,84.90
2019-02-10T22:33:11.797Z,84.80
2019-02-10T22:35:46.392Z,85.10
2019-02-10T22:38:21.017Z,85.30
2019-02-10T22:40:57.279Z,85.60
2019-02-10T22:43:32.107Z,85.40
2019-02-10T22:46:08.371Z,85.60
2019-02-10T22:48:42.997Z,86.80
2019-02-10T22:51:19.056Z,87.60
2019-02-10T22:53:53.791Z,87.60
2019-02-10T22:56:28.300Z,88.10
2019-02-10T22:59:02.791Z,89.10
2019-02-10T23:01:38.805Z,89.30
2019-02-10T23:04:14.014Z,89.80
2019-02-10T23:06:48.792Z,90.90
2019-02-10T23:09:26.791Z,91.30
2019-02-10T23:12:01.164Z,90.70
2019-02-10T23:14:37.222Z,91.30
2019-02-10T23:17:19.017Z,90.90
2019-02-10T23:19:55.479Z,91.10
2019-02-10T23:22:30.308Z,91.10
2019-02-10T23:25:04.798Z,91.20
2019-02-10T23:27:38.875Z,91.50
2019-02-10T23:30:12.747Z,91.60
2019-02-10T23:32:47.370Z,92.10
2019-02-10T23:35:22.202Z,91.90
2019-02-10T23:37:58.901Z,91.50
2019-02-10T23:40:32.911Z,91.10
2019-02-10T23:43:07.095Z,91.10
2019-02-10T23:45:43.152Z,91.10
2019-02-10T23:48:17.890Z,91.20
2019-02-10T23:50:52.886Z,91.20
2019-02-10T23:53:26.895Z,90.90
2019-02-10T23:56:01.888Z,90.70
2019-02-10T23:58:36.476Z,90.60
